Météo Cheval Rigon

 

Relevés d'aujourd'hui



 

29/11/21
Time         Wind Dir   Wind Spd  Wind Gust   Humidity       Temp   Tot Rain Wind Chill  Dew Point   Barom SL Humidity R Temp Out R Tot Rain R   WindCh R   Dew Pt R SL Barom R Temp Out H Temp Out L  DailyRain   HourRain   24HrRain   RainRate  MonthRain
                          km/hr      km/hr          %         C         mm         C         C         mb       %/hr      C/hr      mm/hr      C/hr      C/hr      mm/hr         C         C         mm         mm         mm      mm/hr         mm
0:00               10          0          5         99       -0.6     863.00       -0.6       -0.7    1007.36        0.0      -0.21      0.000      -0.07      -0.21      0.359       -0.6       -0.6       0.00       0.00       0.00      0.000      16.00
0:15              336          0          3         99       -0.6     863.00       -0.6       -0.7    1007.43        0.0      -0.20      0.000      -0.09      -0.20      0.336       -0.6       -0.6       0.00       0.00       0.00      0.000      16.00
0:30              355          0          3         99       -0.7     863.00       -0.7       -0.8    1007.43        0.0      -0.21      0.000      -0.11      -0.21      0.252       -0.6       -0.7       0.00       0.00       0.00      0.000      16.00
0:45               30          3          8         99       -0.7     863.00       -1.3       -0.8    1007.46        0.0      -0.17      0.000      -0.70      -0.17      0.227       -0.6       -0.7       0.00       0.00       0.00      0.000      16.00
1:00              333          0          6         99       -0.7     863.00       -0.7       -0.9    1007.36        0.0      -0.18      0.000      -0.05      -0.18      0.085       -0.6       -0.7       0.00       0.00       0.00      0.000      16.00
1:15              302          5          5         99       -0.7     863.00       -2.3       -0.9    1007.36        0.0      -0.14      0.000      -1.59      -0.14      0.067       -0.6       -0.7       0.00       0.00       0.00      0.000      16.00
1:30                5          2          6         99       -0.8     863.00       -0.8       -0.9    1007.53        0.0      -0.16      0.000      -0.02      -0.16      0.203       -0.6       -0.8       0.00       0.00       0.00      0.000      16.00
1:45               11          3          6         99       -0.8     863.00       -1.4       -0.9    1007.53        0.0      -0.12      0.000      -0.59      -0.12      0.157       -0.6       -0.8       0.00       0.00       0.00      0.000      16.00
2:00               10          0          5         99       -0.8     863.00       -0.8       -1.0    1007.80        0.0      -0.14      0.000       0.04      -0.14      0.352       -0.6       -0.8       0.00       0.00       0.00      0.000      16.00
2:15                5          3          6         99       -0.9     863.00       -1.5       -1.0    1007.97        0.0      -0.16      0.000      -0.63      -0.16      0.425       -0.6       -0.9       0.00       0.00       0.00      0.000      16.00
2:30              350          2          5         99       -0.9     863.00       -0.9       -1.1    1008.03        0.0      -0.17      0.000       0.00      -0.17      0.386       -0.6       -0.9       0.00       0.00       0.00      0.000      16.00
2:45               15          2          6         99       -1.0     863.00       -1.0       -1.1    1008.14        0.0      -0.18      0.000      -0.01      -0.18      0.388       -0.6       -1.0       0.00       0.00       0.00      0.000      16.00
3:00              322          2          5         99       -1.1     863.00       -1.1       -1.2    1008.31        0.0      -0.19      0.000      -0.00      -0.19      0.452       -0.6       -1.1       0.00       0.00       0.00      0.000      16.00
3:15              360          0          6         99       -1.2     863.00       -1.2       -1.3    1008.58        0.0      -0.24      0.000      -0.04      -0.24      0.584       -0.6       -1.2       0.00       0.00       0.00      0.000      16.00
3:30              291          2          6         99       -1.2     863.00       -1.2       -1.4    1008.71        0.0      -0.24      0.000      -0.03      -0.24      0.566       -0.6       -1.2       0.00       0.00       0.00      0.000      16.00
3:45                5          0          5         99       -1.3     863.00       -1.3       -1.4    1008.81        0.0      -0.23      0.000      -0.06      -0.23      0.532       -0.6       -1.3       0.00       0.00       0.00      0.000      16.00
4:00              313          0          5         99       -1.3     863.00       -1.3       -1.4    1008.92        0.0      -0.18      0.000      -0.02      -0.18      0.510       -0.6       -1.3       0.00       0.00       0.00      0.000      16.00
4:15              360          0          8         99       -1.3     863.00       -1.3       -1.5    1009.12        0.0      -0.19      0.000      -0.01      -0.19      0.587       -0.6       -1.3       0.00       0.00       0.00      0.000      16.00
4:30              344          0          5         99       -1.3     863.00       -1.3       -1.5    1009.19        0.0      -0.15      0.000       0.01      -0.15      0.527       -0.6       -1.3       0.00       0.00       0.00      0.000      16.00
4:45               12          2          8         99       -1.3     863.00       -1.3       -1.5    1009.32        0.0      -0.12      0.000       0.04      -0.12      0.532       -0.6       -1.3       0.00       0.00       0.00      0.000      16.00
5:00                5          0          5         99       -1.3     863.00       -1.3       -1.5    1009.39        0.0      -0.09      0.000       0.05      -0.09      0.479       -0.6       -1.3       0.00       0.00       0.00      0.000      16.00
5:15              345          0          5         99       -1.3     863.00       -1.3       -1.4    1009.56        0.0      -0.02      0.000       0.11      -0.02      0.527       -0.6       -1.3       0.00       0.00       0.00      0.000      16.00
5:30                5          0          3         99       -1.3     863.00       -1.3       -1.4    1009.73        0.0      -0.01      0.000       0.11      -0.01      0.554       -0.6       -1.3       0.00       0.00       0.00      0.000      16.00
5:45              355          2          5         99       -1.3     863.00       -1.3       -1.5    1009.93        0.0      -0.06      0.000       0.07      -0.06      0.610       -0.6       -1.3       0.00       0.00       0.00      0.000      16.00
6:00               11          2          5         99       -1.3     863.00       -1.3       -1.5    1010.20        0.0      -0.04      0.000       0.08      -0.04      0.720       -0.6       -1.3       0.00       0.00       0.00      0.000      16.00

 


 

 

 

Retour accueil